CDG8802 ZUCK-ZSJN
Flight info
| Callsign | CDG8802 |
|---|---|
| Flight time | 1h 48m |
| Altitude | 35100 |
| Route | OVNUL1Z OVNUL W677 IGIRO W4 WXI W59 UBSIS UBSIS6W |
| Aircraft | B738/M-SDE2E3FGHIRWXY/LB1 |
Departure
| Time | 2026-05-05 06:28 |
|---|---|
| Airport | Chongqing Jiangbei International Airport (ZUCK) |
Arrival
| Time | 2026-05-05 08:16 |
|---|---|
| Airport | Jinan Yaoqiang International Airport (ZSJN) |
| Time | Latitude | Longitude | Altitude | Speed | Heading |
|---|---|---|---|---|---|
| 2026-05-05 06:08 | 29.71968 | 106.65057 | 1354 ft | 0 kts | 173° |
| 2026-05-05 06:20 | 29.71974 | 106.65056 | 1353 ft | 4 kts | 173° |
| 2026-05-05 06:21 | 29.72000 | 106.65053 | 1352 ft | 4 kts | 173° |
| 2026-05-05 06:21 | 29.72024 | 106.65050 | 1353 ft | 4 kts | 181° |
| 2026-05-05 06:21 | 29.72047 | 106.65057 | 1353 ft | 4 kts | 231° |
| 2026-05-05 06:21 | 29.72055 | 106.65084 | 1352 ft | 4 kts | 270° |
| 2026-05-05 06:22 | 29.72052 | 106.65113 | 1351 ft | 3 kts | 286° |
| 2026-05-05 06:22 | 29.72052 | 106.65116 | 1351 ft | 0 kts | 287° |
| 2026-05-05 06:23 | 29.72061 | 106.65081 | 1352 ft | 11 kts | 287° |
| 2026-05-05 06:24 | 29.72091 | 106.64969 | 1353 ft | 17 kts | 287° |
| 2026-05-05 06:24 | 29.72073 | 106.64831 | 1354 ft | 21 kts | 217° |
| 2026-05-05 06:24 | 29.71918 | 106.64774 | 1355 ft | 26 kts | 195° |
| 2026-05-05 06:24 | 29.71730 | 106.64706 | 1356 ft | 28 kts | 197° |
| 2026-05-05 06:25 | 29.71562 | 106.64646 | 1357 ft | 25 kts | 197° |
| 2026-05-05 06:25 | 29.71404 | 106.64592 | 1358 ft | 23 kts | 195° |
| 2026-05-05 06:25 | 29.71253 | 106.64540 | 1358 ft | 22 kts | 198° |
| 2026-05-05 06:25 | 29.71106 | 106.64490 | 1357 ft | 22 kts | 198° |
| 2026-05-05 06:26 | 29.70955 | 106.64438 | 1357 ft | 24 kts | 196° |
| 2026-05-05 06:26 | 29.70784 | 106.64380 | 1358 ft | 27 kts | 196° |
| 2026-05-05 06:26 | 29.70602 | 106.64320 | 1358 ft | 25 kts | 196° |
| 2026-05-05 06:26 | 29.70457 | 106.64269 | 1357 ft | 16 kts | 207° |
| 2026-05-05 06:27 | 29.70459 | 106.64155 | 1358 ft | 16 kts | 293° |
| 2026-05-05 06:27 | 29.70552 | 106.64093 | 1359 ft | 0 kts | 16° |
| 2026-05-05 06:27 | 29.70737 | 106.64156 | 1357 ft | 68 kts | 17° |
| 2026-05-05 06:28 | 29.71451 | 106.64401 | 1355 ft | 144 kts | 16° |
| 2026-05-05 06:28 | 29.72597 | 106.64806 | 1505 ft | 194 kts | 17° |
| 2026-05-05 06:28 | 29.73991 | 106.65278 | 2001 ft | 221 kts | 17° |
| 2026-05-05 06:28 | 29.75523 | 106.65756 | 2731 ft | 228 kts | 20° |
| 2026-05-05 06:29 | 29.77009 | 106.66271 | 3716 ft | 225 kts | 21° |
| 2026-05-05 06:29 | 29.78564 | 106.66826 | 3997 ft | 246 kts | 20° |
| 2026-05-05 06:29 | 29.80264 | 106.67431 | 4200 ft | 268 kts | 19° |
| 2026-05-05 06:29 | 29.82099 | 106.68075 | 4722 ft | 281 kts | 18° |
| 2026-05-05 06:30 | 29.83990 | 106.68732 | 5536 ft | 286 kts | 18° |
| 2026-05-05 06:30 | 29.85915 | 106.69400 | 6332 ft | 291 kts | 17° |
| 2026-05-05 06:30 | 29.87871 | 106.70086 | 7102 ft | 296 kts | 18° |
| 2026-05-05 06:30 | 29.89848 | 106.70781 | 7935 ft | 298 kts | 15° |
| 2026-05-05 06:31 | 29.91824 | 106.71437 | 8728 ft | 300 kts | 15° |
| 2026-05-05 06:31 | 29.93844 | 106.72135 | 9488 ft | 305 kts | 15° |
| 2026-05-05 06:31 | 29.95891 | 106.72847 | 10199 ft | 309 kts | 15° |
| 2026-05-05 06:31 | 29.97282 | 106.73328 | 10460 ft | 321 kts | 15° |
| 2026-05-05 06:32 | 30.00293 | 106.74370 | 10687 ft | 353 kts | 15° |
| 2026-05-05 06:32 | 30.02715 | 106.75211 | 10847 ft | 374 kts | 15° |
| 2026-05-05 06:32 | 30.04391 | 106.75794 | 10931 ft | 386 kts | 15° |
| 2026-05-05 06:32 | 30.07004 | 106.76703 | 11265 ft | 397 kts | 15° |
| 2026-05-05 06:33 | 30.09658 | 106.77628 | 11865 ft | 399 kts | 15° |
| 2026-05-05 06:33 | 30.12318 | 106.78556 | 12490 ft | 400 kts | 15° |
| 2026-05-05 06:33 | 30.14988 | 106.79485 | 13077 ft | 402 kts | 15° |
| 2026-05-05 06:33 | 30.17677 | 106.80421 | 13645 ft | 404 kts | 15° |
| 2026-05-05 06:34 | 30.20375 | 106.81384 | 14249 ft | 405 kts | 18° |
| 2026-05-05 06:34 | 30.22970 | 106.82668 | 14831 ft | 406 kts | 24° |
| 2026-05-05 06:34 | 30.25452 | 106.84158 | 15326 ft | 408 kts | 26° |
| 2026-05-05 06:34 | 30.27955 | 106.85736 | 15841 ft | 410 kts | 27° |
| 2026-05-05 06:35 | 30.30463 | 106.87313 | 16339 ft | 411 kts | 26° |
| 2026-05-05 06:35 | 30.32992 | 106.88874 | 16818 ft | 413 kts | 25° |
| 2026-05-05 06:35 | 30.35542 | 106.90420 | 17301 ft | 414 kts | 25° |
| 2026-05-05 06:35 | 30.38108 | 106.91958 | 17758 ft | 416 kts | 25° |
| 2026-05-05 06:36 | 30.40696 | 106.93487 | 18026 ft | 419 kts | 24° |
| 2026-05-05 06:36 | 30.43292 | 106.95022 | 18395 ft | 419 kts | 24° |
| 2026-05-05 06:36 | 30.45882 | 106.96576 | 18772 ft | 421 kts | 25° |
| 2026-05-05 06:36 | 30.48495 | 106.98145 | 19071 ft | 424 kts | 24° |
| 2026-05-05 06:37 | 30.51134 | 106.99719 | 19385 ft | 427 kts | 24° |
| 2026-05-05 06:37 | 30.53786 | 107.01299 | 19707 ft | 430 kts | 24° |
| 2026-05-05 06:37 | 30.56453 | 107.02890 | 20045 ft | 432 kts | 25° |
| 2026-05-05 06:37 | 30.59051 | 107.04676 | 20368 ft | 437 kts | 31° |
| 2026-05-05 06:38 | 30.61542 | 107.06717 | 20724 ft | 439 kts | 33° |
| 2026-05-05 06:38 | 30.63998 | 107.08844 | 21040 ft | 442 kts | 33° |
| 2026-05-05 06:38 | 30.66467 | 107.10990 | 21354 ft | 443 kts | 33° |
| 2026-05-05 06:38 | 30.68949 | 107.13130 | 21652 ft | 446 kts | 33° |
| 2026-05-05 06:39 | 30.71453 | 107.15270 | 21917 ft | 448 kts | 32° |
| 2026-05-05 06:39 | 30.73952 | 107.17381 | 22205 ft | 450 kts | 32° |
| 2026-05-05 06:39 | 30.76502 | 107.19520 | 22517 ft | 452 kts | 32° |
| 2026-05-05 06:39 | 30.79062 | 107.21660 | 22801 ft | 454 kts | 32° |
| 2026-05-05 06:40 | 30.81638 | 107.23812 | 23043 ft | 457 kts | 32° |
| 2026-05-05 06:40 | 30.84228 | 107.25977 | 23293 ft | 459 kts | 32° |
| 2026-05-05 06:40 | 30.86832 | 107.28157 | 23526 ft | 461 kts | 32° |
| 2026-05-05 06:40 | 30.89439 | 107.30341 | 23777 ft | 462 kts | 32° |
| 2026-05-05 06:41 | 30.92049 | 107.32531 | 24056 ft | 462 kts | 32° |
| 2026-05-05 06:41 | 30.94659 | 107.34723 | 24306 ft | 463 kts | 32° |
| 2026-05-05 06:41 | 30.97243 | 107.36894 | 24518 ft | 465 kts | 32° |
| 2026-05-05 06:41 | 30.99874 | 107.39104 | 24717 ft | 467 kts | 32° |
| 2026-05-05 06:42 | 31.02510 | 107.41323 | 25014 ft | 467 kts | 31° |
| 2026-05-05 06:42 | 31.05166 | 107.43505 | 25271 ft | 465 kts | 28° |
| 2026-05-05 06:42 | 31.07949 | 107.45420 | 25458 ft | 465 kts | 24° |
| 2026-05-05 06:42 | 31.10804 | 107.47230 | 25642 ft | 467 kts | 24° |
| 2026-05-05 06:43 | 31.13679 | 107.49021 | 25861 ft | 468 kts | 24° |
| 2026-05-05 06:43 | 31.16547 | 107.50826 | 26104 ft | 468 kts | 24° |
| 2026-05-05 06:43 | 31.19409 | 107.52653 | 26327 ft | 470 kts | 24° |
| 2026-05-05 06:43 | 31.22273 | 107.54504 | 26537 ft | 471 kts | 24° |
| 2026-05-05 06:44 | 31.25146 | 107.56363 | 26688 ft | 473 kts | 23° |
| 2026-05-05 06:44 | 31.28034 | 107.58170 | 27087 ft | 470 kts | 24° |
| 2026-05-05 06:44 | 31.30869 | 107.60063 | 27438 ft | 469 kts | 25° |
| 2026-05-05 06:44 | 31.33669 | 107.61927 | 27666 ft | 470 kts | 24° |
| 2026-05-05 06:45 | 31.36524 | 107.63797 | 27908 ft | 470 kts | 24° |
| 2026-05-05 06:45 | 31.39381 | 107.65651 | 28240 ft | 468 kts | 24° |
| 2026-05-05 06:45 | 31.42225 | 107.67493 | 28611 ft | 466 kts | 24° |
| 2026-05-05 06:45 | 31.45071 | 107.69339 | 28973 ft | 465 kts | 24° |
| 2026-05-05 06:46 | 31.47896 | 107.71175 | 29281 ft | 464 kts | 24° |
| 2026-05-05 06:46 | 31.50691 | 107.72995 | 29614 ft | 464 kts | 24° |
| 2026-05-05 06:46 | 31.53545 | 107.74856 | 30024 ft | 462 kts | 23° |
| 2026-05-05 06:46 | 31.56296 | 107.76655 | 30513 ft | 456 kts | 23° |
| 2026-05-05 06:47 | 31.59049 | 107.78454 | 30942 ft | 451 kts | 24° |
| 2026-05-05 06:47 | 31.61790 | 107.80246 | 31237 ft | 450 kts | 24° |
| 2026-05-05 06:47 | 31.64443 | 107.82229 | 31491 ft | 456 kts | 32° |
| 2026-05-05 06:47 | 31.66913 | 107.84570 | 31825 ft | 456 kts | 34° |
| 2026-05-05 06:48 | 31.69332 | 107.86962 | 32210 ft | 453 kts | 34° |
| 2026-05-05 06:48 | 31.71725 | 107.89346 | 32594 ft | 450 kts | 34° |
| 2026-05-05 06:48 | 31.74112 | 107.91708 | 32953 ft | 447 kts | 34° |
| 2026-05-05 06:48 | 31.76496 | 107.94048 | 33266 ft | 446 kts | 34° |
| 2026-05-05 06:49 | 31.78895 | 107.96339 | 33543 ft | 444 kts | 33° |
| 2026-05-05 06:49 | 31.81286 | 107.98640 | 33820 ft | 443 kts | 34° |
| 2026-05-05 06:49 | 31.83625 | 108.00928 | 34112 ft | 441 kts | 34° |
| 2026-05-05 06:49 | 31.85972 | 108.03259 | 34326 ft | 443 kts | 35° |
| 2026-05-05 06:50 | 31.88317 | 108.05611 | 34507 ft | 442 kts | 33° |
| 2026-05-05 06:50 | 31.90705 | 108.07912 | 34711 ft | 442 kts | 33° |
| 2026-05-05 06:50 | 31.93086 | 108.10202 | 34897 ft | 442 kts | 33° |
| 2026-05-05 06:51 | 31.97857 | 108.14815 | 34910 ft | 443 kts | 33° |
| 2026-05-05 06:51 | 32.02554 | 108.19440 | 34912 ft | 442 kts | 33° |
| 2026-05-05 06:52 | 32.07236 | 108.24149 | 34915 ft | 447 kts | 40° |
| 2026-05-05 06:52 | 32.10816 | 108.30281 | 34911 ft | 463 kts | 57° |
| 2026-05-05 06:53 | 32.13042 | 108.37515 | 34919 ft | 470 kts | 65° |
| 2026-05-05 06:53 | 32.15071 | 108.44866 | 34906 ft | 470 kts | 64° |
| 2026-05-05 06:54 | 32.17152 | 108.52138 | 34914 ft | 467 kts | 64° |
| 2026-05-05 06:54 | 32.19222 | 108.59361 | 34922 ft | 468 kts | 64° |
| 2026-05-05 06:55 | 32.21435 | 108.66585 | 34899 ft | 461 kts | 55° |
| 2026-05-05 06:55 | 32.23180 | 108.69690 | 34909 ft | 447 kts | 42° |
| 2026-05-05 06:55 | 32.25332 | 108.72291 | 34949 ft | 441 kts | 36° |
| 2026-05-05 06:55 | 32.27751 | 108.74441 | 34926 ft | 431 kts | 24° |
| 2026-05-05 06:56 | 32.30354 | 108.76202 | 34896 ft | 431 kts | 23° |
| 2026-05-05 06:56 | 32.35591 | 108.79636 | 34913 ft | 430 kts | 24° |
| 2026-05-05 06:57 | 32.40734 | 108.83263 | 34898 ft | 430 kts | 25° |
| 2026-05-05 06:57 | 32.45800 | 108.86917 | 34889 ft | 428 kts | 25° |
| 2026-05-05 06:58 | 32.50883 | 108.90611 | 34892 ft | 428 kts | 25° |
| 2026-05-05 06:58 | 32.55976 | 108.94268 | 34890 ft | 428 kts | 25° |
| 2026-05-05 06:59 | 32.61070 | 108.97934 | 34890 ft | 428 kts | 25° |
| 2026-05-05 06:59 | 32.66173 | 109.01619 | 34892 ft | 429 kts | 25° |
| 2026-05-05 07:00 | 32.71286 | 109.05315 | 34888 ft | 430 kts | 25° |
| 2026-05-05 07:00 | 32.76402 | 109.09018 | 34900 ft | 431 kts | 25° |
| 2026-05-05 07:01 | 32.81519 | 109.12729 | 34918 ft | 431 kts | 25° |
| 2026-05-05 07:01 | 32.86609 | 109.16426 | 34905 ft | 431 kts | 25° |
| 2026-05-05 07:02 | 32.91720 | 109.20142 | 34904 ft | 430 kts | 25° |
| 2026-05-05 07:02 | 32.96830 | 109.23862 | 34925 ft | 430 kts | 25° |
| 2026-05-05 07:03 | 33.01937 | 109.27590 | 34919 ft | 430 kts | 25° |
| 2026-05-05 07:03 | 33.07035 | 109.31311 | 34910 ft | 429 kts | 25° |
| 2026-05-05 07:04 | 33.12117 | 109.35040 | 34939 ft | 429 kts | 26° |
| 2026-05-05 07:04 | 33.17181 | 109.38809 | 34920 ft | 428 kts | 25° |
| 2026-05-05 07:05 | 33.22249 | 109.42490 | 34928 ft | 430 kts | 25° |
| 2026-05-05 07:05 | 33.27348 | 109.46230 | 34940 ft | 429 kts | 24° |
| 2026-05-05 07:06 | 33.32443 | 109.49907 | 34906 ft | 431 kts | 26° |
| 2026-05-05 07:06 | 33.37520 | 109.53792 | 34920 ft | 438 kts | 30° |
| 2026-05-05 07:06 | 33.39723 | 109.56404 | 34944 ft | 455 kts | 46° |
| 2026-05-05 07:07 | 33.41354 | 109.59724 | 34914 ft | 471 kts | 60° |
| 2026-05-05 07:07 | 33.42256 | 109.63560 | 34923 ft | 487 kts | 74° |
| 2026-05-05 07:07 | 33.42690 | 109.67604 | 34917 ft | 491 kts | 76° |
| 2026-05-05 07:08 | 33.43374 | 109.75719 | 34917 ft | 495 kts | 77° |
| 2026-05-05 07:08 | 33.44086 | 109.83893 | 34921 ft | 493 kts | 76° |
| 2026-05-05 07:09 | 33.44853 | 109.92027 | 34901 ft | 490 kts | 76° |
| 2026-05-05 07:09 | 33.45640 | 110.00132 | 34920 ft | 491 kts | 76° |
| 2026-05-05 07:10 | 33.46420 | 110.08275 | 34912 ft | 492 kts | 76° |
| 2026-05-05 07:10 | 33.47193 | 110.16415 | 34909 ft | 491 kts | 76° |
| 2026-05-05 07:11 | 33.47959 | 110.24555 | 34899 ft | 491 kts | 76° |
| 2026-05-05 07:11 | 33.48713 | 110.32620 | 34894 ft | 489 kts | 76° |
| 2026-05-05 07:12 | 33.49466 | 110.40730 | 34906 ft | 490 kts | 76° |
| 2026-05-05 07:12 | 33.50070 | 110.44710 | 34883 ft | 479 kts | 63° |
| 2026-05-05 07:12 | 33.51557 | 110.48177 | 34931 ft | 461 kts | 47° |
| 2026-05-05 07:12 | 33.53632 | 110.51044 | 34888 ft | 450 kts | 36° |
| 2026-05-05 07:13 | 33.56109 | 110.53244 | 34880 ft | 438 kts | 23° |
| 2026-05-05 07:13 | 33.61517 | 110.56511 | 34891 ft | 434 kts | 19° |
| 2026-05-05 07:14 | 33.67032 | 110.59503 | 34893 ft | 434 kts | 19° |
| 2026-05-05 07:14 | 33.72490 | 110.62520 | 34890 ft | 435 kts | 20° |
| 2026-05-05 07:15 | 33.77964 | 110.65633 | 34866 ft | 433 kts | 20° |
| 2026-05-05 07:15 | 33.83397 | 110.68749 | 34880 ft | 432 kts | 20° |
| 2026-05-05 07:16 | 33.88809 | 110.71862 | 34888 ft | 431 kts | 20° |
| 2026-05-05 07:16 | 33.94217 | 110.74991 | 34882 ft | 431 kts | 20° |
| 2026-05-05 07:17 | 33.99631 | 110.78113 | 34815 ft | 431 kts | 18° |
| 2026-05-05 07:17 | 34.02376 | 110.79547 | 34922 ft | 430 kts | 19° |
| 2026-05-05 07:17 | 34.05057 | 110.81091 | 34877 ft | 433 kts | 20° |
| 2026-05-05 07:18 | 34.10483 | 110.84322 | 34873 ft | 436 kts | 21° |
| 2026-05-05 07:18 | 34.15936 | 110.87539 | 34851 ft | 436 kts | 20° |
| 2026-05-05 07:19 | 34.21389 | 110.90721 | 34854 ft | 435 kts | 20° |
| 2026-05-05 07:19 | 34.26839 | 110.93883 | 34847 ft | 433 kts | 20° |
| 2026-05-05 07:20 | 34.32279 | 110.97044 | 34837 ft | 433 kts | 20° |
| 2026-05-05 07:20 | 34.37716 | 111.00210 | 34828 ft | 433 kts | 20° |
| 2026-05-05 07:21 | 34.42710 | 111.04391 | 34827 ft | 446 kts | 35° |
| 2026-05-05 07:21 | 34.46751 | 111.10194 | 34843 ft | 461 kts | 51° |
| 2026-05-05 07:22 | 34.49478 | 111.15769 | 34854 ft | 463 kts | 52° |
| 2026-05-05 07:22 | 34.53333 | 111.23641 | 34843 ft | 465 kts | 52° |
| 2026-05-05 07:23 | 34.56693 | 111.30336 | 34837 ft | 465 kts | 51° |
| 2026-05-05 07:23 | 34.60067 | 111.37029 | 34831 ft | 465 kts | 51° |
| 2026-05-05 07:24 | 34.62877 | 111.42601 | 34833 ft | 466 kts | 51° |
| 2026-05-05 07:24 | 34.66251 | 111.49313 | 34840 ft | 465 kts | 51° |
| 2026-05-05 07:25 | 34.69595 | 111.55980 | 34833 ft | 464 kts | 51° |
| 2026-05-05 07:25 | 34.72951 | 111.62684 | 34837 ft | 464 kts | 51° |
| 2026-05-05 07:26 | 34.76312 | 111.69412 | 34847 ft | 464 kts | 51° |
| 2026-05-05 07:26 | 34.79643 | 111.76091 | 34838 ft | 464 kts | 51° |
| 2026-05-05 07:27 | 34.82988 | 111.82811 | 34852 ft | 464 kts | 52° |
| 2026-05-05 07:27 | 34.86330 | 111.89540 | 34854 ft | 465 kts | 52° |
| 2026-05-05 07:28 | 34.89692 | 111.96278 | 34852 ft | 465 kts | 52° |
| 2026-05-05 07:28 | 34.93056 | 112.02953 | 34852 ft | 465 kts | 51° |
| 2026-05-05 07:29 | 34.96441 | 112.09680 | 34853 ft | 465 kts | 51° |
| 2026-05-05 07:29 | 34.99819 | 112.16419 | 34860 ft | 465 kts | 52° |
| 2026-05-05 07:30 | 35.03186 | 112.23155 | 34862 ft | 465 kts | 52° |
| 2026-05-05 07:30 | 35.08235 | 112.33281 | 34864 ft | 465 kts | 52° |
| 2026-05-05 07:31 | 35.11575 | 112.39994 | 34869 ft | 465 kts | 52° |
| 2026-05-05 07:31 | 35.14934 | 112.46760 | 34876 ft | 466 kts | 52° |
| 2026-05-05 07:32 | 35.18296 | 112.53543 | 34874 ft | 467 kts | 52° |
| 2026-05-05 07:32 | 35.21664 | 112.60334 | 34875 ft | 466 kts | 52° |
| 2026-05-05 07:33 | 35.25063 | 112.67083 | 34850 ft | 462 kts | 50° |
| 2026-05-05 07:33 | 35.28496 | 112.73782 | 34887 ft | 467 kts | 52° |
| 2026-05-05 07:34 | 35.31853 | 112.80572 | 34903 ft | 470 kts | 52° |
| 2026-05-05 07:34 | 35.35247 | 112.87406 | 34885 ft | 469 kts | 52° |
| 2026-05-05 07:35 | 35.38641 | 112.94219 | 34897 ft | 468 kts | 52° |
| 2026-05-05 07:35 | 35.42032 | 113.01029 | 34899 ft | 468 kts | 52° |
| 2026-05-05 07:36 | 35.45414 | 113.07831 | 34915 ft | 468 kts | 52° |
| 2026-05-05 07:36 | 35.48804 | 113.14671 | 34928 ft | 468 kts | 52° |
| 2026-05-05 07:37 | 35.52182 | 113.21504 | 34923 ft | 467 kts | 52° |
| 2026-05-05 07:37 | 35.55550 | 113.28325 | 34930 ft | 466 kts | 53° |
| 2026-05-05 07:38 | 35.58888 | 113.35161 | 34942 ft | 467 kts | 52° |
| 2026-05-05 07:38 | 35.62275 | 113.41954 | 34932 ft | 469 kts | 52° |
| 2026-05-05 07:39 | 35.65717 | 113.48755 | 34942 ft | 466 kts | 52° |
| 2026-05-05 07:39 | 35.69144 | 113.55510 | 34913 ft | 465 kts | 52° |
| 2026-05-05 07:40 | 35.72554 | 113.62244 | 34916 ft | 463 kts | 52° |
| 2026-05-05 07:40 | 35.75899 | 113.69054 | 34914 ft | 464 kts | 52° |
| 2026-05-05 07:41 | 35.79331 | 113.75785 | 34908 ft | 464 kts | 52° |
| 2026-05-05 07:41 | 35.82743 | 113.82541 | 34896 ft | 465 kts | 52° |
| 2026-05-05 07:42 | 35.86122 | 113.89279 | 34869 ft | 465 kts | 52° |
| 2026-05-05 07:42 | 35.89520 | 113.96081 | 34858 ft | 466 kts | 52° |
| 2026-05-05 07:43 | 35.92913 | 114.02891 | 34858 ft | 466 kts | 52° |
| 2026-05-05 07:43 | 35.96314 | 114.09728 | 34861 ft | 467 kts | 52° |
| 2026-05-05 07:44 | 35.99706 | 114.16562 | 34852 ft | 467 kts | 52° |
| 2026-05-05 07:44 | 36.03091 | 114.23394 | 34838 ft | 466 kts | 52° |
| 2026-05-05 07:45 | 36.06470 | 114.30228 | 34844 ft | 465 kts | 52° |
| 2026-05-05 07:45 | 36.09821 | 114.37018 | 34841 ft | 466 kts | 52° |
| 2026-05-05 07:46 | 36.13204 | 114.43884 | 34832 ft | 467 kts | 53° |
| 2026-05-05 07:46 | 36.16575 | 114.50747 | 34827 ft | 466 kts | 53° |
| 2026-05-05 07:47 | 36.19933 | 114.57593 | 34834 ft | 465 kts | 53° |
| 2026-05-05 07:47 | 36.23294 | 114.64459 | 34827 ft | 466 kts | 53° |
| 2026-05-05 07:48 | 36.26649 | 114.71326 | 34828 ft | 465 kts | 53° |
| 2026-05-05 07:48 | 36.29975 | 114.78225 | 34830 ft | 466 kts | 54° |
| 2026-05-05 07:49 | 36.33215 | 114.85138 | 34829 ft | 467 kts | 54° |
| 2026-05-05 07:49 | 36.36352 | 114.92207 | 34813 ft | 472 kts | 61° |
| 2026-05-05 07:50 | 36.38262 | 115.00096 | 34825 ft | 480 kts | 70° |
| 2026-05-05 07:50 | 36.39925 | 115.08116 | 34831 ft | 479 kts | 69° |
| 2026-05-05 07:51 | 36.41659 | 115.16099 | 34828 ft | 478 kts | 69° |
| 2026-05-05 07:51 | 36.43563 | 115.23915 | 34824 ft | 472 kts | 62° |
| 2026-05-05 07:52 | 36.46223 | 115.31335 | 34834 ft | 470 kts | 59° |
| 2026-05-05 07:52 | 36.48915 | 115.38727 | 34833 ft | 466 kts | 60° |
| 2026-05-05 07:53 | 36.50221 | 115.42379 | 34691 ft | 461 kts | 60° |
| 2026-05-05 07:53 | 36.51516 | 115.46021 | 34110 ft | 459 kts | 60° |
| 2026-05-05 07:53 | 36.52802 | 115.49650 | 33447 ft | 458 kts | 60° |
| 2026-05-05 07:53 | 36.54087 | 115.53280 | 32716 ft | 458 kts | 60° |
| 2026-05-05 07:54 | 36.55372 | 115.56911 | 31992 ft | 459 kts | 61° |
| 2026-05-05 07:54 | 36.56655 | 115.60544 | 31258 ft | 460 kts | 61° |
| 2026-05-05 07:54 | 36.57942 | 115.64191 | 30537 ft | 461 kts | 62° |
| 2026-05-05 07:54 | 36.59232 | 115.67849 | 29738 ft | 464 kts | 62° |
| 2026-05-05 07:55 | 36.60530 | 115.71537 | 28804 ft | 466 kts | 62° |
| 2026-05-05 07:55 | 36.61830 | 115.75237 | 27906 ft | 467 kts | 63° |
| 2026-05-05 07:55 | 36.63131 | 115.78940 | 27189 ft | 465 kts | 63° |
| 2026-05-05 07:55 | 36.64417 | 115.82611 | 26464 ft | 462 kts | 63° |
| 2026-05-05 07:56 | 36.65701 | 115.86269 | 25817 ft | 459 kts | 63° |
| 2026-05-05 07:56 | 36.66959 | 115.89859 | 25200 ft | 456 kts | 63° |
| 2026-05-05 07:56 | 36.68224 | 115.93471 | 24593 ft | 453 kts | 63° |
| 2026-05-05 07:56 | 36.69481 | 115.97064 | 23980 ft | 450 kts | 64° |
| 2026-05-05 07:57 | 36.70726 | 116.00627 | 23368 ft | 447 kts | 63° |
| 2026-05-05 07:57 | 36.71963 | 116.04173 | 22685 ft | 444 kts | 64° |
| 2026-05-05 07:57 | 36.73189 | 116.07691 | 22050 ft | 440 kts | 64° |
| 2026-05-05 07:57 | 36.74401 | 116.11173 | 21450 ft | 436 kts | 63° |
| 2026-05-05 07:58 | 36.75605 | 116.14635 | 20861 ft | 432 kts | 63° |
| 2026-05-05 07:58 | 36.76795 | 116.18060 | 20283 ft | 428 kts | 63° |
| 2026-05-05 07:58 | 36.77971 | 116.21451 | 19693 ft | 424 kts | 63° |
| 2026-05-05 07:58 | 36.79137 | 116.24814 | 19129 ft | 422 kts | 64° |
| 2026-05-05 07:59 | 36.80210 | 116.28210 | 18555 ft | 421 kts | 72° |
| 2026-05-05 07:59 | 36.80547 | 116.31835 | 17973 ft | 422 kts | 86° |
| 2026-05-05 07:59 | 36.80621 | 116.35443 | 17295 ft | 421 kts | 87° |
| 2026-05-05 07:59 | 36.80711 | 116.39068 | 16708 ft | 417 kts | 86° |
| 2026-05-05 08:00 | 36.80813 | 116.42680 | 16119 ft | 414 kts | 86° |
| 2026-05-05 08:00 | 36.80923 | 116.46254 | 15558 ft | 410 kts | 87° |
| 2026-05-05 08:00 | 36.81039 | 116.49797 | 15002 ft | 407 kts | 87° |
| 2026-05-05 08:00 | 36.81158 | 116.53314 | 14437 ft | 405 kts | 87° |
| 2026-05-05 08:01 | 36.81276 | 116.56811 | 13877 ft | 402 kts | 88° |
| 2026-05-05 08:01 | 36.81394 | 116.60287 | 13277 ft | 400 kts | 88° |
| 2026-05-05 08:01 | 36.81510 | 116.63747 | 12680 ft | 397 kts | 89° |
| 2026-05-05 08:01 | 36.81623 | 116.67176 | 12115 ft | 394 kts | 90° |
| 2026-05-05 08:02 | 36.81735 | 116.70576 | 11552 ft | 391 kts | 90° |
| 2026-05-05 08:02 | 36.81843 | 116.73911 | 11021 ft | 388 kts | 90° |
| 2026-05-05 08:02 | 36.81949 | 116.77218 | 10878 ft | 374 kts | 90° |
| 2026-05-05 08:02 | 36.82051 | 116.80407 | 10722 ft | 361 kts | 90° |
| 2026-05-05 08:03 | 36.82150 | 116.83489 | 10582 ft | 350 kts | 90° |
| 2026-05-05 08:03 | 36.82243 | 116.86477 | 10443 ft | 339 kts | 91° |
| 2026-05-05 08:03 | 36.82334 | 116.89374 | 10297 ft | 330 kts | 91° |
| 2026-05-05 08:03 | 36.82364 | 116.90336 | 10248 ft | 327 kts | 91° |
| 2026-05-05 08:04 | 36.82421 | 116.92228 | 10152 ft | 320 kts | 91° |
| 2026-05-05 08:04 | 36.82486 | 116.94973 | 10009 ft | 312 kts | 92° |
| 2026-05-05 08:04 | 36.82548 | 116.97642 | 9859 ft | 304 kts | 90° |
| 2026-05-05 08:04 | 36.83034 | 117.00186 | 9618 ft | 306 kts | 65° |
| 2026-05-05 08:05 | 36.84395 | 117.02235 | 9286 ft | 308 kts | 37° |
| 2026-05-05 08:05 | 36.86309 | 117.03378 | 8961 ft | 305 kts | 12° |
| 2026-05-05 08:05 | 36.88396 | 117.03600 | 8671 ft | 300 kts | 358° |
| 2026-05-05 08:05 | 36.90450 | 117.03583 | 8350 ft | 299 kts | 356° |
| 2026-05-05 08:06 | 36.92528 | 117.03543 | 8054 ft | 298 kts | 356° |
| 2026-05-05 08:06 | 36.94597 | 117.03509 | 7761 ft | 297 kts | 356° |
| 2026-05-05 08:06 | 36.96564 | 117.03486 | 7480 ft | 295 kts | 356° |
| 2026-05-05 08:06 | 36.98621 | 117.03470 | 7192 ft | 294 kts | 356° |
| 2026-05-05 08:07 | 37.00666 | 117.03460 | 6903 ft | 294 kts | 356° |
| 2026-05-05 08:07 | 37.02703 | 117.03452 | 6700 ft | 290 kts | 356° |
| 2026-05-05 08:07 | 37.04701 | 117.03446 | 6533 ft | 284 kts | 356° |
| 2026-05-05 08:07 | 37.06658 | 117.03445 | 6375 ft | 278 kts | 356° |
| 2026-05-05 08:08 | 37.08570 | 117.03498 | 6236 ft | 273 kts | 5° |
| 2026-05-05 08:08 | 37.10299 | 117.04382 | 6105 ft | 268 kts | 40° |
| 2026-05-05 08:08 | 37.11446 | 117.06149 | 5867 ft | 260 kts | 69° |
| 2026-05-05 08:08 | 37.11919 | 117.08276 | 5646 ft | 250 kts | 91° |
| 2026-05-05 08:09 | 37.11964 | 117.10429 | 5425 ft | 246 kts | 96° |
| 2026-05-05 08:09 | 37.11942 | 117.12539 | 5199 ft | 244 kts | 97° |
| 2026-05-05 08:09 | 37.11925 | 117.14664 | 4969 ft | 243 kts | 96° |
| 2026-05-05 08:09 | 37.11915 | 117.16771 | 4746 ft | 241 kts | 96° |
| 2026-05-05 08:10 | 37.11794 | 117.18844 | 4503 ft | 233 kts | 115° |
| 2026-05-05 08:10 | 37.10908 | 117.20315 | 4473 ft | 200 kts | 157° |
| 2026-05-05 08:10 | 37.09644 | 117.20777 | 4283 ft | 186 kts | 172° |
| 2026-05-05 08:10 | 37.08810 | 117.20998 | 4125 ft | 183 kts | 173° |
| 2026-05-05 08:11 | 37.07573 | 117.21240 | 3886 ft | 176 kts | 176° |
| 2026-05-05 08:11 | 37.06372 | 117.21436 | 3664 ft | 172 kts | 178° |
| 2026-05-05 08:11 | 37.04818 | 117.21558 | 3375 ft | 166 kts | 182° |
| 2026-05-05 08:11 | 37.04042 | 117.21579 | 3229 ft | 164 kts | 183° |
| 2026-05-05 08:12 | 37.02547 | 117.21592 | 2952 ft | 161 kts | 184° |
| 2026-05-05 08:12 | 37.01815 | 117.21594 | 2831 ft | 158 kts | 184° |
| 2026-05-05 08:12 | 37.00729 | 117.21595 | 2643 ft | 154 kts | 184° |
| 2026-05-05 08:12 | 36.99682 | 117.21596 | 2432 ft | 150 kts | 184° |
| 2026-05-05 08:13 | 36.98675 | 117.21597 | 2258 ft | 137 kts | 184° |
| 2026-05-05 08:13 | 36.97725 | 117.21596 | 2068 ft | 137 kts | 184° |
| 2026-05-05 08:13 | 36.96758 | 117.21595 | 1880 ft | 140 kts | 184° |
| 2026-05-05 08:13 | 36.95790 | 117.21594 | 1692 ft | 137 kts | 184° |
| 2026-05-05 08:14 | 36.94852 | 117.21595 | 1527 ft | 134 kts | 184° |
| 2026-05-05 08:14 | 36.93923 | 117.21595 | 1364 ft | 134 kts | 185° |
| 2026-05-05 08:14 | 36.92984 | 117.21596 | 1175 ft | 136 kts | 181° |
| 2026-05-05 08:14 | 36.92034 | 117.21595 | 1003 ft | 137 kts | 181° |
| 2026-05-05 08:15 | 36.91074 | 117.21606 | 825 ft | 141 kts | 182° |
| 2026-05-05 08:15 | 36.90087 | 117.21616 | 684 ft | 139 kts | 184° |
| 2026-05-05 08:15 | 36.89130 | 117.21616 | 481 ft | 140 kts | 183° |
| 2026-05-05 08:15 | 36.88146 | 117.21611 | 310 ft | 143 kts | 183° |
| 2026-05-05 08:16 | 36.87140 | 117.21600 | 122 ft | 145 kts | 181° |
| 2026-05-05 08:16 | 36.86199 | 117.21592 | 86 ft | 124 kts | 180° |
| 2026-05-05 08:16 | 36.85486 | 117.21596 | 87 ft | 81 kts | 179° |
| 2026-05-05 08:16 | 36.85081 | 117.21594 | 85 ft | 34 kts | 180° |
| 2026-05-05 08:17 | 36.84856 | 117.21591 | 86 ft | 31 kts | 181° |
| 2026-05-05 08:17 | 36.84650 | 117.21585 | 86 ft | 29 kts | 181° |
| 2026-05-05 08:17 | 36.84444 | 117.21581 | 86 ft | 31 kts | 190° |
| 2026-05-05 08:17 | 36.84424 | 117.21403 | 83 ft | 21 kts | 320° |
| 2026-05-05 08:18 | 36.84551 | 117.21341 | 81 ft | 20 kts | 298° |
| 2026-05-05 08:18 | 36.84624 | 117.21205 | 79 ft | 19 kts | 323° |
| 2026-05-05 08:18 | 36.84673 | 117.21133 | 80 ft | 0 kts | 303° |